Time;durP1;ratioP1;P1;durP2;ratioP2;P2;SDS_P1;SDS_P2;PMS_P1;PMS_P2;Temp;Humidity;BMP_temperature;BMP_pressure;BME280_temperature;BME280_humidity;BME280_pressure;Samples;Min_cycle;Max_cycle;Signal;HPM_P1;HPM_P2
2021/05/28 00:01:14;;;;;;;;;;;;;;;19.83;43.99;100485.22;4433269;32;20015;-45
2021/05/28 00:03:40;;;;;;;;;;;;;;;19.78;43.67;100483.41;4435387;32;19989;-47
2021/05/28 00:06:05;;;;;;;;;;;;;;;19.75;43.92;100491.25;4420202;32;19964;-45
2021/05/28 00:08:31;;;;;;;;;;;;;;;19.70;43.94;100492.94;4419406;32;19972;-45
2021/05/28 00:10:57;;;;;;;;;;;;;;;19.75;43.73;100490.38;4430128;32;20006;-45
2021/05/28 00:13:23;;;;;;;;;;;;;;;19.72;43.51;100493.84;4434075;32;19991;-49
2021/05/28 00:15:49;;;;;;;;;;;;;;;19.72;44.11;100487.69;4424398;32;20381;-48
2021/05/28 00:18:15;;;;;;;;;;;;;;;19.64;43.90;100496.38;4419213;32;19987;-45
2021/05/28 00:20:41;;;;;;;;;;;;;;;19.69;43.68;100498.19;4426665;32;19953;-45
2021/05/28 00:23:07;;;;;;;;;;;;;;;19.72;43.88;100498.28;4433792;32;20240;-47
2021/05/28 00:25:32;;;;;;;;;;;;;;;19.73;43.77;100502.69;4427424;32;19954;-46
2021/05/28 00:27:58;;;;;;;;;;;;;;;19.72;43.69;100495.63;4418856;32;19951;-49
2021/05/28 00:30:24;;;;;;;;;;;;;;;19.74;43.67;100489.47;4423802;32;19945;-49
2021/05/28 00:32:50;;;;;;;;;;;;;;;19.62;43.94;100492.81;4434440;32;20338;-49
2021/05/28 00:35:17;;;;;;;;;;;;;;;19.65;44.12;100498.16;4429544;32;19996;-46
2021/05/28 00:37:43;;;;;;;;;;;;;;;19.66;44.15;100505.22;4419203;32;19958;-47
2021/05/28 00:40:09;;;;;;;;;;;;;;;19.58;44.18;100501.56;4420728;32;20036;-48
2021/05/28 00:42:35;;;;;;;;;;;;;;;19.60;44.22;100502.47;4433669;32;19962;-45
2021/05/28 00:45:01;;;;;;;;;;;;;;;19.50;44.47;100495.25;4433077;32;19938;-50
2021/05/28 00:47:26;;;;;;;;;;;;;;;19.59;44.12;100503.34;4418139;32;19988;-46
2021/05/28 00:49:52;;;;;;;;;;;;;;;19.54;44.28;100502.34;4418955;32;20610;-47
2021/05/28 00:52:18;;;;;;;;;;;;;;;19.60;44.06;100494.56;4432507;32;19954;-47
2021/05/28 00:54:44;;;;;;;;;;;;;;;19.56;44.07;100497.13;4434235;32;19954;-47
2021/05/28 00:57:10;;;;;;;;;;;;;;;19.59;44.06;100492.78;4433425;32;20372;-46
2021/05/28 00:59:36;;;;;;;;;;;;;;;19.62;43.77;100499.84;4433860;32;19950;-49
2021/05/28 01:02:02;;;;;;;;;;;;;;;19.63;44.13;100493.69;4420625;32;19950;-47
2021/05/28 01:04:28;;;;;;;;;;;;;;;19.60;43.80;100497.19;4417941;32;20039;-46
2021/05/28 01:06:53;;;;;;;;;;;;;;;19.60;43.70;100498.94;4429473;32;19957;-51
2021/05/28 01:09:19;;;;;;;;;;;;;;;19.65;43.86;100498.16;4432886;32;20650;-49
2021/05/28 01:11:45;;;;;;;;;;;;;;;19.71;43.92;100501.78;4423804;32;19943;-48
2021/05/28 01:14:11;;;;;;;;;;;;;;;19.60;43.97;100488.37;4417675;32;20031;-48
2021/05/28 01:16:37;;;;;;;;;;;;;;;19.57;44.10;100489.22;4426396;32;19937;-49
2021/05/28 01:19:03;;;;;;;;;;;;;;;19.59;44.27;100492.78;4432934;32;19973;-52
2021/05/28 01:21:29;;;;;;;;;;;;;;;19.57;43.56;100489.22;4426177;32;19976;-46
2021/05/28 01:23:55;;;;;;;;;;;;;;;19.58;44.18;100488.34;4427882;32;20005;-51
2021/05/28 01:26:21;;;;;;;;;;;;;;;19.52;44.29;100485.59;4432772;32;20035;-48
2021/05/28 01:28:47;;;;;;;;;;;;;;;19.59;43.98;100487.50;4432862;32;19957;-48
2021/05/28 01:31:13;;;;;;;;;;;;;;;19.62;43.94;100492.81;4433252;32;19965;-48
2021/05/28 01:33:39;;;;;;;;;;;;;;;19.55;43.96;100496.22;4432696;32;19958;-49
2021/05/28 01:36:05;;;;;;;;;;;;;;;19.46;44.34;100488.16;4429229;32;19985;-49
2021/05/28 01:38:30;;;;;;;;;;;;;;;19.52;44.19;100485.59;4418233;32;19950;-49
2021/05/28 01:40:57;;;;;;;;;;;;;;;19.56;43.92;100486.53;4419477;32;19939;-50
2021/05/28 01:43:22;;;;;;;;;;;;;;;19.53;44.01;100495.28;4432383;32;20064;-49
2021/05/28 01:45:48;;;;;;;;;;;;;;;19.46;44.31;100493.44;4432814;32;20361;-49
2021/05/28 01:48:14;;;;;;;;;;;;;;;19.48;43.77;100494.34;4417590;32;19975;-48
2021/05/28 01:50:44;;;;;;;;;;;;;;;19.54;44.02;100490.91;4416737;32;19954;-50
2021/05/28 01:53:12;;;;;;;;;;;;;;;19.53;43.79;100497.94;4431853;32;20370;-46
2021/05/28 01:55:38;;;;;;;;;;;;;;;19.46;44.08;100493.44;4433121;32;19975;-49
2021/05/28 01:58:04;;;;;;;;;;;;;;;19.50;44.10;100497.87;4432104;32;19954;-49
2021/05/28 02:00:30;;;;;;;;;;;;;;;19.62;43.55;100491.91;4432816;32;19964;-46
2021/05/28 02:02:55;;;;;;;;;;;;;;;19.49;44.20;100493.47;4420617;32;20291;-46
2021/05/28 02:05:21;;;;;;;;;;;;;;;19.56;44.06;100492.69;4417024;32;19957;-47
2021/05/28 02:07:47;;;;;;;;;;;;;;;19.51;44.06;100499.66;4428306;32;19950;-46
2021/05/28 02:10:13;;;;;;;;;;;;;;;19.49;44.01;100501.41;4431667;32;19953;-46
2021/05/28 02:12:39;;;;;;;;;;;;;;;19.46;44.13;100498.72;4423278;32;19985;-48
2021/05/28 02:15:05;;;;;;;;;;;;;;;19.57;43.76;100504.16;4416852;32;19951;-50
2021/05/28 02:17:31;;;;;;;;;;;;;;;19.51;43.64;100490.00;4424857;32;19950;-46
2021/05/28 02:19:57;;;;;;;;;;;;;;;19.56;44.00;100505.91;4431992;32;20017;-49
2021/05/28 02:22:23;;;;;;;;;;;;;;;19.52;43.96;100501.44;4424725;32;20029;-45
2021/05/28 02:24:49;;;;;;;;;;;;;;;19.42;44.10;100499.50;4431611;32;19937;-47
2021/05/28 02:27:15;;;;;;;;;;;;;;;19.50;43.84;100503.16;4431823;32;19949;-46
2021/05/28 02:29:40;;;;;;;;;;;;;;;19.43;44.12;100506.56;4431317;32;19964;-49
2021/05/28 02:32:06;;;;;;;;;;;;;;;19.47;44.00;100511.06;4431565;32;20030;-49
2021/05/28 02:34:32;;;;;;;;;;;;;;;19.44;43.77;100509.22;4432729;32;19949;-47
2021/05/28 02:36:58;;;;;;;;;;;;;;;19.46;43.88;100518.06;4429616;32;19966;-48
2021/05/28 02:39:24;;;;;;;;;;;;;;;19.42;44.21;100512.69;4415690;32;19958;-50
2021/05/28 02:41:50;;;;;;;;;;;;;;;19.49;44.05;100507.56;4418514;32;20005;-48
2021/05/28 02:44:16;;;;;;;;;;;;;;;19.53;43.83;100516.44;4431992;32;19974;-47
2021/05/28 02:46:42;;;;;;;;;;;;;;;19.54;43.84;100517.34;4432447;32;19957;-50
2021/05/28 02:49:09;;;;;;;;;;;;;;;19.55;43.64;100517.34;4416752;32;20015;-48
2021/05/28 02:51:35;;;;;;;;;;;;;;;19.46;43.92;100517.19;4416693;32;19950;-45
2021/05/28 02:54:00;;;;;;;;;;;;;;;19.50;43.87;100524.31;4429980;32;19958;-50
2021/05/28 02:56:26;;;;;;;;;;;;;;;19.29;44.22;100520.38;4432125;32;20299;-48
2021/05/28 02:58:52;;;;;;;;;;;;;;;19.40;44.12;100522.34;4432030;32;19961;-49
2021/05/28 03:01:18;;;;;;;;;;;;;;;19.45;43.87;100520.69;4431597;32;19976;-50
2021/05/28 03:03:44;;;;;;;;;;;;;;;19.54;43.63;100525.25;4421737;32;19950;-46
2021/05/28 03:06:10;;;;;;;;;;;;;;;19.52;43.67;100519.94;4416135;32;19981;-46
2021/05/28 03:08:36;;;;;;;;;;;;;;;19.55;43.80;100527.91;4426165;32;19949;-51
2021/05/28 03:11:02;;;;;;;;;;;;;;;19.45;43.84;100520.69;4432469;32;19950;-51
2021/05/28 03:13:28;;;;;;;;;;;;;;;19.50;43.93;100524.31;4423529;32;20069;-49
2021/05/28 03:15:53;;;;;;;;;;;;;;;19.41;43.95;100524.13;4416698;32;19968;-51
2021/05/28 03:18:22;;;;;;;;;;;;;;;19.51;43.55;100526.06;4422636;32;20357;-48
2021/05/28 03:20:50;;;;;;;;;;;;;;;19.45;43.89;100521.56;4431604;32;19985;-47
2021/05/28 03:23:16;;;;;;;;;;;;;;;19.42;43.67;100523.25;4429545;32;19969;-51
2021/05/28 03:25:43;;;;;;;;;;;;;;;19.47;43.64;100529.53;4433801;32;19989;-49
2021/05/28 03:28:09;;;;;;;;;;;;;;;19.46;43.65;100530.41;4429936;32;20369;-48
2021/05/28 03:30:35;;;;;;;;;;;;;;;19.54;43.95;100541.09;4419533;32;19954;-48
2021/05/28 03:33:01;;;;;;;;;;;;;;;19.43;43.98;100538.25;4423543;32;20022;-51
2021/05/28 03:35:26;;;;;;;;;;;;;;;19.36;44.09;100543.41;4434033;32;19941;-46
2021/05/28 03:37:52;;;;;;;;;;;;;;;19.26;44.23;100524.72;4433457;32;19954;-50
2021/05/28 03:40:18;;;;;;;;;;;;;;;19.29;44.11;100536.22;4418251;32;19999;-50
2021/05/28 03:42:44;;;;;;;;;;;;;;;19.38;43.96;100536.41;4419561;32;19954;-48
2021/05/28 03:45:10;;;;;;;;;;;;;;;19.31;44.30;100534.50;4434448;32;20415;-49
2021/05/28 03:47:37;;;;;;;;;;;;;;;19.24;44.20;100528.22;4435032;32;19990;-47
2021/05/28 03:50:03;;;;;;;;;;;;;;;19.16;44.40;100528.94;4419634;32;19964;-49
2021/05/28 03:52:29;;;;;;;;;;;;;;;19.27;44.22;100534.44;4418968;32;19958;-46
2021/05/28 03:54:55;;;;;;;;;;;;;;;19.42;43.87;100536.47;4432760;32;20806;-45
2021/05/28 03:57:21;;;;;;;;;;;;;;;19.40;43.89;100543.47;4434411;32;19965;-50
2021/05/28 03:59:47;;;;;;;;;;;;;;;19.36;44.00;100545.16;4434499;32;19973;-45
2021/05/28 04:02:13;;;;;;;;;;;;;;;19.46;43.69;100538.31;4434322;32;19949;-48
2021/05/28 04:04:40;;;;;;;;;;;;;;;19.40;43.86;100546.13;4424513;32;19958;-50
2021/05/28 04:07:06;;;;;;;;;;;;;;;19.35;43.93;100540.75;4418661;32;19969;-51
2021/05/28 04:09:32;;;;;;;;;;;;;;;19.46;43.73;100536.56;4427915;32;20340;-49
2021/05/28 04:11:58;;;;;;;;;;;;;;;19.44;43.65;100540.03;4434411;32;20023;-49
2021/05/28 04:14:24;;;;;;;;;;;;;;;19.47;43.53;100540.97;4426580;32;20350;-48
2021/05/28 04:16:50;;;;;;;;;;;;;;;19.43;43.95;100544.44;4419049;32;19977;-50
2021/05/28 04:19:16;;;;;;;;;;;;;;;19.30;44.15;100543.28;4424030;32;20371;-47
2021/05/28 04:21:41;;;;;;;;;;;;;;;19.33;44.07;100546.00;4434131;32;19968;-45
2021/05/28 04:24:07;;;;;;;;;;;;;;;19.38;43.84;100544.34;4433861;32;19962;-47
2021/05/28 04:26:33;;;;;;;;;;;;;;;19.42;43.89;100542.66;4434867;32;19949;-46
2021/05/28 04:28:59;;;;;;;;;;;;;;;19.47;43.63;100545.37;4433756;32;20333;-45
2021/05/28 04:31:25;;;;;;;;;;;;;;;19.51;43.56;100547.22;4434224;32;19953;-46
2021/05/28 04:33:51;;;;;;;;;;;;;;;19.56;43.47;100545.53;4432303;32;19969;-48
2021/05/28 04:36:17;;;;;;;;;;;;;;;19.57;43.34;100552.63;4417494;32;19969;-46
2021/05/28 04:38:43;;;;;;;;;;;;;;;19.59;43.25;100550.91;4419055;32;19954;-47
2021/05/28 04:41:08;;;;;;;;;;;;;;;19.54;43.44;100547.25;4433310;32;20525;-50
2021/05/28 04:43:34;;;;;;;;;;;;;;;19.27;44.05;100545.87;4434023;32;19975;-48
2021/05/28 04:46:00;;;;;;;;;;;;;;;19.38;43.70;100546.97;4419094;32;20309;-50
2021/05/28 04:48:26;;;;;;;;;;;;;;;19.40;43.81;100554.03;4417796;32;20075;-50
2021/05/28 04:50:52;;;;;;;;;;;;;;;19.32;43.99;100560.09;4430727;32;19954;-51
2021/05/28 04:53:18;;;;;;;;;;;;;;;19.35;43.82;100556.59;4433176;32;19953;-51
2021/05/28 04:55:44;;;;;;;;;;;;;;;19.44;43.74;100561.16;4432145;32;20792;-46
2021/05/28 04:58:10;;;;;;;;;;;;;;;19.48;43.63;100573.56;4418720;32;19973;-50
2021/05/28 05:00:36;;;;;;;;;;;;;;;19.52;43.37;100570.13;4429177;32;19953;-46
2021/05/28 05:03:01;;;;;;;;;;;;;;;19.52;43.48;100570.13;4428842;32;19946;-46
2021/05/28 05:05:27;;;;;;;;;;;;;;;19.48;43.54;100573.56;4424744;32;20173;-49
2021/05/28 05:07:53;;;;;;;;;;;;;;;19.41;43.63;100576.94;4426987;32;19942;-47
2021/05/28 05:10:19;;;;;;;;;;;;;;;19.45;43.53;100582.31;4425341;32;20200;-49
2021/05/28 05:12:45;;;;;;;;;;;;;;;19.50;43.66;100590.34;4425549;32;20358;-49
2021/05/28 05:15:11;;;;;;;;;;;;;;;19.44;43.51;100598.12;4425914;32;19969;-48
2021/05/28 05:17:37;;;;;;;;;;;;;;;19.40;43.71;100588.38;4426164;32;19986;-49
2021/05/28 05:20:03;;;;;;;;;;;;;;;19.36;43.85;100590.97;4426411;32;19934;-48
2021/05/28 05:22:28;;;;;;;;;;;;;;;19.45;43.63;100595.53;4425388;32;19990;-47
2021/05/28 05:24:55;;;;;;;;;;;;;;;19.47;43.58;100588.50;4426739;32;19953;-49
2021/05/28 05:27:20;;;;;;;;;;;;;;;19.43;43.66;100596.34;4433506;32;19961;-48
2021/05/28 05:29:47;;;;;;;;;;;;;;;19.47;43.63;100599.09;4432057;32;19989;-51
2021/05/28 05:32:12;;;;;;;;;;;;;;;19.50;43.67;100607.06;4432561;32;19986;-45
2021/05/28 05:34:38;;;;;;;;;;;;;;;19.48;43.57;100610.56;4417617;32;20346;-47
2021/05/28 05:37:04;;;;;;;;;;;;;;;19.60;43.24;100613.44;4416378;32;19946;-51
2021/05/28 05:39:30;;;;;;;;;;;;;;;19.61;43.28;100612.56;4416328;32;19942;-48
2021/05/28 05:41:56;;;;;;;;;;;;;;;19.61;43.31;100612.56;4425209;32;19969;-54
2021/05/28 05:44:22;;;;;;;;;;;;;;;19.61;43.38;100616.94;4418934;32;19958;-51
2021/05/28 05:46:48;;;;;;;;;;;;;;;19.58;43.33;100616.91;4430305;32;19942;-48
2021/05/28 05:49:14;;;;;;;;;;;;;;;19.61;43.21;100627.50;4431980;32;19950;-51
2021/05/28 05:51:40;;;;;;;;;;;;;;;19.59;43.32;100624.88;4420247;32;19978;-45
2021/05/28 05:54:06;;;;;;;;;;;;;;;19.63;43.19;100620.50;4416504;32;20308;-51
2021/05/28 05:56:32;;;;;;;;;;;;;;;19.71;42.90;100624.19;4430225;32;20013;-52
2021/05/28 05:58:58;;;;;;;;;;;;;;;19.72;42.96;100625.97;4425370;32;20052;-51
2021/05/28 06:01:24;;;;;;;;;;;;;;;19.69;43.00;100627.66;4420636;32;19942;-51
2021/05/28 06:03:51;;;;;;;;;;;;;;;19.70;42.99;100626.81;4422043;32;20290;-50
2021/05/28 06:06:16;;;;;;;;;;;;;;;19.76;42.95;100632.22;4424991;32;20529;-49
2021/05/28 06:08:42;;;;;;;;;;;;;;;19.74;42.85;100628.66;4432454;32;19953;-49
2021/05/28 06:11:08;;;;;;;;;;;;;;;19.71;42.94;100626.84;4426370;32;19980;-47
2021/05/28 06:13:34;;;;;;;;;;;;;;;19.71;43.11;100631.25;4417501;32;19984;-51
2021/05/28 06:16:00;;;;;;;;;;;;;;;19.74;42.84;100631.28;4422788;32;20042;-51
2021/05/28 06:18:26;;;;;;;;;;;;;;;19.78;42.86;100638.41;4433745;32;19964;-50
2021/05/28 06:20:52;;;;;;;;;;;;;;;19.76;42.79;100626.94;4429265;32;19954;-51
2021/05/28 06:23:18;;;;;;;;;;;;;;;19.76;42.84;100633.13;4417579;32;20303;-51
2021/05/28 06:25:46;;;;;;;;;;;;;;;19.72;43.05;100630.37;4419071;32;19962;-50
2021/05/28 06:28:12;;;;;;;;;;;;;;;19.75;42.98;100638.38;4424577;32;20006;-51
2021/05/28 06:30:38;;;;;;;;;;;;;;;19.74;42.92;100636.59;4429281;32;19938;-52
2021/05/28 06:33:06;;;;;;;;;;;;;;;19.71;43.04;100639.19;4422352;32;20350;-46
2021/05/28 06:35:32;;;;;;;;;;;;;;;19.76;42.98;100637.50;4424920;32;19957;-49
2021/05/28 06:37:58;;;;;;;;;;;;;;;19.78;42.92;100633.13;4423912;32;19981;-49
2021/05/28 06:40:24;;;;;;;;;;;;;;;19.74;42.96;100645.38;4423388;32;19961;-51
2021/05/28 06:42:50;;;;;;;;;;;;;;;19.69;43.22;100638.22;4424379;32;19985;-49
2021/05/28 06:45:18;;;;;;;;;;;;;;;19.67;43.29;100648.78;4426147;32;19953;-52
2021/05/28 06:47:44;;;;;;;;;;;;;;;19.65;43.32;100645.22;4424343;32;20045;-50
2021/05/28 06:50:09;;;;;;;;;;;;;;;19.70;43.22;100642.69;4424604;32;20389;-49
2021/05/28 06:52:35;;;;;;;;;;;;;;;19.66;43.32;100652.28;4424339;32;19996;-49
2021/05/28 06:55:01;;;;;;;;;;;;;;;19.67;43.31;100644.37;4425954;32;19973;-51
2021/05/28 06:57:27;;;;;;;;;;;;;;;19.67;43.31;100652.31;4421540;32;19997;-50
2021/05/28 06:59:53;;;;;;;;;;;;;;;19.70;43.29;100650.59;4411016;32;19999;-48
2021/05/28 07:02:19;;;;;;;;;;;;;;;19.71;43.27;100660.31;4419445;32;20007;-52
2021/05/28 07:04:45;;;;;;;;;;;;;;;19.70;43.28;100661.19;4415126;32;20270;-51
2021/05/28 07:07:11;;;;;;;;;;;;;;;19.77;43.15;100656.03;4419769;32;19998;-51
2021/05/28 07:09:37;;;;;;;;;;;;;;;19.86;42.90;100657.97;4430391;32;19976;-53
2021/05/28 07:12:03;;;;;;;;;;;;;;;19.90;42.90;100661.56;4424567;32;20017;-53
2021/05/28 07:14:29;;;;;;;;;;;;;;;19.91;42.96;100660.69;4414941;32;19965;-49
2021/05/28 07:16:55;;;;;;;;;;;;;;;19.89;42.96;100665.06;4424973;32;19954;-48
2021/05/28 07:19:21;;;;;;;;;;;;;;;19.88;43.06;100672.09;4415059;32;20428;-48
2021/05/28 07:21:47;;;;;;;;;;;;;;;19.89;42.95;100675.62;4417463;32;19939;-48
2021/05/28 07:24:13;;;;;;;;;;;;;;;19.91;42.95;100674.78;4430781;32;20338;-48
2021/05/28 07:26:39;;;;;;;;;;;;;;;19.93;42.99;100677.50;4431291;32;19962;-51
2021/05/28 07:29:05;;;;;;;;;;;;;;;19.95;42.88;100675.75;4430155;32;20278;-53
2021/05/28 07:31:31;;;;;;;;;;;;;;;19.99;42.82;100674.09;4430303;32;19970;-50
2021/05/28 07:33:57;;;;;;;;;;;;;;;20.00;42.82;100667.94;4417316;32;19954;-51
2021/05/28 07:36:23;;;;;;;;;;;;;;;19.99;42.86;100666.16;4416738;32;20060;-56
2021/05/28 07:38:49;;;;;;;;;;;;;;;19.80;42.97;100664.00;4428800;32;20017;-54
2021/05/28 07:41:15;;;;;;;;;;;;;;;19.25;43.92;100661.13;4419854;32;19991;-57
2021/05/28 07:43:41;;;;;;;;;;;;;;;19.19;44.40;100666.28;4416876;32;19950;-53
2021/05/28 07:46:07;;;;;;;;;;;;;;;19.12;44.16;100664.37;4427182;32;21313;-56
2021/05/28 07:48:33;;;;;;;;;;;;;;;19.09;44.12;100667.81;4416698;32;19960;-54
2021/05/28 07:50:59;;;;;;;;;;;;;;;19.18;43.65;100665.41;4418255;32;19981;-55
2021/05/28 07:53:26;;;;;;;;;;;;;;;19.00;44.16;100665.88;4420021;32;19966;-56
2021/05/28 07:55:52;;;;;;;;;;;;;;;19.09;44.14;100665.19;4417688;32;19988;-55
2021/05/28 07:58:18;;;;;;;;;;;;;;;19.17;43.77;100665.34;4421019;32;20577;-53
2021/05/28 08:00:44;;;;;;;;;;;;;;;19.09;43.76;100662.53;4427197;32;19954;-56
2021/05/28 08:03:10;;;;;;;;;;;;;;;18.78;44.47;100659.19;4423761;32;20031;-56
2021/05/28 08:05:36;;;;;;;;;;;;;;;19.12;43.82;100659.09;4419705;32;19957;-56
2021/05/28 08:08:03;;;;;;;;;;;;;;;18.65;44.59;100663.25;4423528;32;19979;-53
2021/05/28 08:10:29;;;;;;;;;;;;;;;18.81;43.80;100652.22;4423429;32;19978;-54
2021/05/28 08:12:55;;;;;;;;;;;;;;;18.78;44.31;100649.50;4432786;32;19950;-55
2021/05/28 08:15:21;;;;;;;;;;;;;;;18.74;44.33;100654.66;4428306;32;19968;-53
2021/05/28 08:17:47;;;;;;;;;;;;;;;18.50;44.68;100654.13;4422764;32;20383;-54
2021/05/28 08:20:13;;;;;;;;;;;;;;;18.61;44.32;100656.16;4432232;32;19981;-55
2021/05/28 08:22:39;;;;;;;;;;;;;;;18.26;45.02;100655.28;4432840;32;19954;-54
2021/05/28 08:25:05;;;;;;;;;;;;;;;18.38;44.59;100654.69;4422880;32;19950;-56
2021/05/28 08:27:31;;;;;;;;;;;;;;;18.42;44.92;100660.94;4431857;32;19950;-54
2021/05/28 08:29:57;;;;;;;;;;;;;;;18.58;44.68;100667.50;4433911;32;19938;-54
2021/05/28 08:32:22;;;;;;;;;;;;;;;18.64;44.41;100661.47;4422024;32;20647;-50
2021/05/28 08:34:48;;;;;;;;;;;;;;;18.69;44.23;100667.75;4423324;32;19970;-53
2021/05/28 08:37:14;;;;;;;;;;;;;;;19.02;43.72;100658.00;4424047;32;20334;-55
2021/05/28 08:39:40;;;;;;;;;;;;;;;19.19;43.35;100664.53;4425003;32;20003;-56
2021/05/28 08:42:06;;;;;;;;;;;;;;;19.04;42.68;100662.44;4424688;32;19969;-53
2021/05/28 08:44:32;;;;;;;;;;;;;;;19.02;42.07;100666.78;4421299;32;19984;-56
2021/05/28 08:46:58;;;;;;;;;;;;;;;18.84;43.00;100658.44;4425073;32;20271;-56
2021/05/28 08:49:24;;;;;;;;;;;;;;;18.99;42.73;100657.87;4430075;32;19953;-55
2021/05/28 08:51:50;;;;;;;;;;;;;;;18.87;42.59;100663.78;4415351;32;19946;-56
2021/05/28 08:54:17;;;;;;;;;;;;;;;18.99;42.65;100652.59;4412577;32;20009;-55
2021/05/28 08:56:46;;;;;;;;;;;;;;;19.03;41.92;100660.66;4427369;32;19968;-56
2021/05/28 08:59:11;;;;;;;;;;;;;;;18.77;42.97;100653.00;4423694;32;19950;-54
2021/05/28 09:01:37;;;;;;;;;;;;;;;18.80;42.23;100658.34;4417799;32;19964;-56
2021/05/28 09:04:03;;;;;;;;;;;;;;;18.59;42.78;100663.13;4429465;32;19964;-55
2021/05/28 09:06:29;;;;;;;;;;;;;;;18.61;43.91;100656.16;4433650;32;19964;-53
2021/05/28 09:08:55;;;;;;;;;;;;;;;18.71;43.44;100660.78;4426671;32;20309;-55
2021/05/28 09:11:21;;;;;;;;;;;;;;;18.89;42.94;100660.31;4416728;32;19984;-56
2021/05/28 09:13:48;;;;;;;;;;;;;;;18.50;43.80;100661.13;4428786;32;20317;-56
2021/05/28 09:16:14;;;;;;;;;;;;;;;18.52;43.39;100662.97;4429400;32;20315;-55
2021/05/28 09:18:40;;;;;;;;;;;;;;;18.68;43.11;100665.97;4421860;32;19950;-54
2021/05/28 09:21:06;;;;;;;;;;;;;;;18.85;41.67;100662.84;4431967;32;19990;-55
2021/05/28 09:23:32;;;;;;;;;;;;;;;18.64;42.69;100664.13;4432478;32;20010;-56
2021/05/28 09:25:58;;;;;;;;;;;;;;;18.66;42.71;100670.31;4430343;32;20037;-55
2021/05/28 09:28:24;;;;;;;;;;;;;;;18.72;42.52;100665.22;4424980;32;19950;-56
2021/05/28 09:30:50;;;;;;;;;;;;;;;18.79;42.49;100661.84;4431940;32;20322;-55
2021/05/28 09:33:16;;;;;;;;;;;;;;;18.78;42.91;100665.34;4432007;32;20306;-55
2021/05/28 09:35:42;;;;;;;;;;;;;;;18.69;43.30;100670.38;4431868;32;19972;-55
2021/05/28 09:38:08;;;;;;;;;;;;;;;18.96;42.54;100666.63;4432598;32;19960;-55
2021/05/28 09:40:34;;;;;;;;;;;;;;;19.11;42.37;100663.47;4424151;32;19950;-56
2021/05/28 09:42:59;;;;;;;;;;;;;;;18.93;41.55;100662.16;4417458;32;20370;-55
2021/05/28 09:45:36;;;;;;;;;;;;;;;18.03;43.02;100672.25;4428446;32;19969;-54
2021/05/28 09:48:02;;;;;;;;;;;;;;;18.49;42.95;100662.91;4423654;32;19968;-55
2021/05/28 09:50:32;;;;;;;;;;;;;;;18.78;42.97;100660.06;4423962;32;19986;-55
2021/05/28 09:52:58;;;;;;;;;;;;;;;19.08;42.25;100653.75;4425843;32;19957;-56
2021/05/28 09:55:27;;;;;;;;;;;;;;;18.64;41.71;100656.22;4421726;32;20040;-57
2021/05/28 09:57:53;;;;;;;;;;;;;;;19.02;42.01;100652.72;4425434;32;20377;-56
2021/05/28 10:00:19;;;;;;;;;;;;;;;19.06;41.54;100651.94;4423902;32;19953;-56
2021/05/28 10:02:45;;;;;;;;;;;;;;;19.07;40.64;100651.94;4422024;32;19954;-54
2021/05/28 10:05:12;;;;;;;;;;;;;;;19.09;41.43;100652.88;4424548;32;20345;-55
2021/05/28 10:07:38;;;;;;;;;;;;;;;18.79;41.70;100664.47;4422334;32;19962;-57
2021/05/28 10:10:04;;;;;;;;;;;;;;;18.92;41.34;100659.50;4418646;32;19967;-57
2021/05/28 10:12:30;;;;;;;;;;;;;;;18.98;41.44;100651.72;4425781;32;19942;-57
2021/05/28 10:14:56;;;;;;;;;;;;;;;19.37;40.78;100647.28;4425170;32;19988;-57
2021/05/28 10:17:22;;;;;;;;;;;;;;;19.35;40.84;100652.56;4422381;32;19950;-56
2021/05/28 10:19:48;;;;;;;;;;;;;;;19.16;41.13;100645.09;4422113;32;19991;-57
2021/05/28 10:22:14;;;;;;;;;;;;;;;18.95;41.27;100656.91;4428230;32;20401;-57
2021/05/28 10:24:40;;;;;;;;;;;;;;;18.99;41.30;100653.50;4427455;32;20032;-57
2021/05/28 10:27:06;;;;;;;;;;;;;;;19.14;41.36;100646.81;4428882;32;19954;-58
2021/05/28 10:29:31;;;;;;;;;;;;;;;19.16;41.33;100650.37;4425885;32;19954;-56
2021/05/28 10:31:57;;;;;;;;;;;;;;;19.20;41.04;100652.22;4427779;32;19995;-57
2021/05/28 10:34:23;;;;;;;;;;;;;;;18.89;41.15;100656.78;4425434;32;20333;-56
2021/05/28 10:36:49;;;;;;;;;;;;;;;19.13;40.92;100645.91;4416441;32;19946;-57
2021/05/28 10:39:15;;;;;;;;;;;;;;;19.07;41.45;100646.66;4420680;32;20318;-57
2021/05/28 10:41:41;;;;;;;;;;;;;;;19.30;41.01;100654.19;4418993;32;19995;-54
2021/05/28 10:44:07;;;;;;;;;;;;;;;19.32;40.97;100652.50;4402503;32;19954;-57
2021/05/28 10:46:33;;;;;;;;;;;;;;;19.34;41.04;100656.06;4429421;32;20270;-56
2021/05/28 10:48:59;;;;;;;;;;;;;;;19.26;41.18;100641.78;4431394;32;20298;-58
2021/05/28 10:51:25;;;;;;;;;;;;;;;19.12;40.48;100649.41;4421176;32;19969;-57
2021/05/28 10:53:51;;;;;;;;;;;;;;;19.38;40.74;100647.34;4427961;32;20780;-56
2021/05/28 10:56:17;;;;;;;;;;;;;;;19.42;40.53;100647.37;4426999;32;20000;-57
2021/05/28 10:58:43;;;;;;;;;;;;;;;19.23;39.98;100639.97;4431693;32;19991;-57
2021/05/28 11:01:09;;;;;;;;;;;;;;;18.86;39.89;100640.87;4409867;32;19950;-57
2021/05/28 11:03:35;;;;;;;;;;;;;;;17.69;41.91;100635.31;4423344;32;19954;-57
2021/05/28 11:06:01;;;;;;;;;;;;;;;18.20;41.38;100628.75;4431803;32;19976;-58
2021/05/28 11:08:27;;;;;;;;;;;;;;;18.59;41.33;100639.41;4431075;32;19954;-58
2021/05/28 11:10:52;;;;;;;;;;;;;;;18.86;41.26;100640.87;4426598;32;19964;-56
2021/05/28 11:13:19;;;;;;;;;;;;;;;19.22;40.95;100634.69;4416152;32;19991;-58
2021/05/28 11:15:45;;;;;;;;;;;;;;;19.32;40.29;100625.19;4420313;32;19987;-57
2021/05/28 11:18:12;;;;;;;;;;;;;;;19.48;40.03;100629.91;4431340;32;19950;-57
2021/05/28 11:20:38;;;;;;;;;;;;;;;19.62;39.53;100630.19;4428644;32;20282;-58
2021/05/28 11:23:03;;;;;;;;;;;;;;;19.74;39.55;100626.87;4415773;32;19965;-57
2021/05/28 11:25:32;;;;;;;;;;;;;;;19.56;39.48;100630.06;4416857;32;19959;-58
2021/05/28 11:27:58;;;;;;;;;;;;;;;19.24;39.56;100625.03;4432153;32;19946;-57
2021/05/28 11:30:24;;;;;;;;;;;;;;;19.05;39.58;100626.38;4430530;32;20006;-58
2021/05/28 11:32:50;;;;;;;;;;;;;;;19.14;40.15;100625.69;4416215;32;19997;-57
2021/05/28 11:35:16;;;;;;;;;;;;;;;19.30;39.90;100632.19;4430706;32;19950;-58
2021/05/28 11:37:41;;;;;;;;;;;;;;;19.32;39.71;100615.53;4431480;32;20022;-59
2021/05/28 11:40:07;;;;;;;;;;;;;;;19.29;39.59;100620.72;4430368;32;19946;-57
2021/05/28 11:42:33;;;;;;;;;;;;;;;19.23;39.71;100615.34;4419028;32;19954;-57
2021/05/28 11:44:59;;;;;;;;;;;;;;;19.54;39.79;100620.34;4416867;32;19954;-58
2021/05/28 11:47:25;;;;;;;;;;;;;;;19.60;39.30;100610.78;4429062;32;19950;-57
2021/05/28 20:05:05;;;;;;;;;;;;;;;;;;4437385;31;19954;-67
